Time;durP1;ratioP1;P1;durP2;ratioP2;P2;SDS_P1;SDS_P2;PMS_P1;PMS_P2;Temp;Humidity;BMP_temperature;BMP_pressure;BME280_temperature;BME280_humidity;BME280_pressure;Samples;Min_cycle;Max_cycle;Signal;HPM_P1;HPM_P2
2023/02/04 00:02:24;;;;;;;;;;;;;;;8.12;100.00;103154.97;5024149;28;19933;-64
2023/02/04 00:04:50;;;;;;;;;;;;;;;8.11;100.00;103150.63;5021638;28;19961;-65
2023/02/04 00:07:17;;;;;;;;;;;;;;;8.08;100.00;103150.81;5019466;28;19932;-65
2023/02/04 00:09:48;;;;;;;;;;;;;;;8.05;100.00;103157.00;5019161;28;19933;-65
2023/02/04 00:12:15;;;;;;;;;;;;;;;8.02;100.00;103165.00;5016432;28;19954;-64
2023/02/04 00:14:41;;;;;;;;;;;;;;;7.99;100.00;103172.13;5023685;28;19936;-64
2023/02/04 00:17:09;;;;;;;;;;;;;;;8.00;100.00;103166.00;5013573;28;19940;-64
2023/02/04 00:19:36;;;;;;;;;;;;;;;7.98;100.00;103166.06;5023495;28;20286;-64
2023/02/04 00:22:03;;;;;;;;;;;;;;;8.02;100.00;103172.00;5009339;28;19929;-64
2023/02/04 00:24:29;;;;;;;;;;;;;;;7.98;100.00;103173.91;5018801;28;19929;-64
2023/02/04 00:26:56;;;;;;;;;;;;;;;8.00;100.00;103182.53;5023351;28;19953;-65
2023/02/04 00:29:22;;;;;;;;;;;;;;;8.02;100.00;103172.84;5005856;28;19933;-65
2023/02/04 00:31:48;;;;;;;;;;;;;;;8.00;100.00;103182.53;5023810;28;19929;-64
2023/02/04 00:34:17;;;;;;;;;;;;;;;7.99;100.00;103185.22;5007190;28;19930;-65
2023/02/04 00:36:43;;;;;;;;;;;;;;;7.95;100.00;103186.28;5012508;28;19995;-64
2023/02/04 00:39:09;;;;;;;;;;;;;;;7.95;100.00;103192.34;5011945;28;20450;-65
2023/02/04 00:41:36;;;;;;;;;;;;;;;7.95;100.00;103188.88;5015381;28;19979;-63
2023/02/04 00:44:03;;;;;;;;;;;;;;;7.93;100.00;103191.56;5022434;28;19935;-64
2023/02/04 00:46:29;;;;;;;;;;;;;;;7.95;100.00;103191.50;5021142;28;19924;-63
2023/02/04 00:48:55;;;;;;;;;;;;;;;7.90;100.00;103194.34;5017506;28;19929;-64
2023/02/04 00:51:22;;;;;;;;;;;;;;;7.90;100.00;103202.19;5010994;28;20065;-64
2023/02/04 00:53:48;;;;;;;;;;;;;;;7.89;100.00;103203.09;5022362;28;19940;-63
2023/02/04 00:56:14;;;;;;;;;;;;;;;7.92;100.00;103200.34;5020438;28;20390;-64
2023/02/04 00:58:40;;;;;;;;;;;;;;;7.89;100.00;103203.09;5011677;28;19936;-63
2023/02/04 01:01:07;;;;;;;;;;;;;;;7.87;100.00;103197.91;5022016;28;20007;-63
2023/02/04 01:03:33;;;;;;;;;;;;;;;7.86;100.00;103204.06;5008199;28;20473;-64
2023/02/04 01:05:59;;;;;;;;;;;;;;;7.85;100.00;103196.31;5027344;28;19929;-64
2023/02/04 01:08:26;;;;;;;;;;;;;;;7.86;100.00;103203.22;5015349;28;19936;-64
2023/02/04 01:10:52;;;;;;;;;;;;;;;7.85;100.00;103202.38;5012915;28;19929;-64
2023/02/04 01:13:18;;;;;;;;;;;;;;;7.83;100.00;103205.97;5015409;28;19944;-63
2023/02/04 01:15:45;;;;;;;;;;;;;;;7.83;100.00;103201.59;5022992;28;19933;-64
2023/02/04 01:18:12;;;;;;;;;;;;;;;7.80;100.00;103203.50;5040205;28;19936;-64
2023/02/04 01:20:38;;;;;;;;;;;;;;;7.76;100.00;103201.94;5036466;28;20344;-65
2023/02/04 01:23:04;;;;;;;;;;;;;;;7.73;100.00;103203.78;5015999;28;19956;-64
2023/02/04 01:25:31;;;;;;;;;;;;;;;7.68;100.00;103226.66;5023709;28;19929;-64
2023/02/04 01:27:57;;;;;;;;;;;;;;;7.66;100.00;103227.63;5036933;28;19936;-64
2023/02/04 01:30:23;;;;;;;;;;;;;;;7.64;100.00;103232.91;5032284;28;20544;-64
2023/02/04 01:32:50;;;;;;;;;;;;;;;7.64;100.00;103237.31;5032843;28;19932;-65
2023/02/04 01:35:16;;;;;;;;;;;;;;;7.60;100.00;103247.03;5034890;28;19929;-64
2023/02/04 01:37:42;;;;;;;;;;;;;;;7.58;100.00;103242.78;5028500;28;19929;-64
2023/02/04 01:40:09;;;;;;;;;;;;;;;7.51;100.00;103235.25;5041415;28;19932;-64
2023/02/04 01:42:36;;;;;;;;;;;;;;;7.52;100.00;103239.53;5026735;28;19928;-64
2023/02/04 01:45:05;;;;;;;;;;;;;;;7.54;100.00;103242.09;5035828;28;19929;-63
2023/02/04 01:47:31;;;;;;;;;;;;;;;7.54;100.00;103249.91;5042988;28;20400;-64
2023/02/04 01:49:58;;;;;;;;;;;;;;;7.56;100.00;103248.09;5034133;28;20611;-63
2023/02/04 01:52:25;;;;;;;;;;;;;;;7.55;100.00;103250.75;5032689;28;20257;-64
2023/02/04 01:54:52;;;;;;;;;;;;;;;7.57;100.00;103259.41;5016209;28;20389;-63
2023/02/04 01:57:18;;;;;;;;;;;;;;;7.54;100.00;103255.13;5030925;28;19932;-63
2023/02/04 01:59:46;;;;;;;;;;;;;;;7.51;100.00;103258.75;5030325;28;19943;-64
2023/02/04 02:02:31;;;;;;;;;;;;;;;7.48;100.00;103258.88;5041427;28;20364;-64
2023/02/04 02:04:57;;;;;;;;;;;;;;;7.50;100.00;103257.03;5041743;28;19979;-64
2023/02/04 02:07:23;;;;;;;;;;;;;;;7.48;100.00;103265.84;5028982;28;19928;-64
2023/02/04 02:09:50;;;;;;;;;;;;;;;7.47;100.00;103274.63;5036717;28;19929;-64
2023/02/04 02:12:16;;;;;;;;;;;;;;;7.46;100.00;103273.75;5028807;28;19972;-64
2023/02/04 02:14:42;;;;;;;;;;;;;;;7.47;100.00;103272.84;5030480;28;19928;-64
2023/02/04 02:17:09;;;;;;;;;;;;;;;7.47;100.00;103266.78;5035057;28;19925;-63
2023/02/04 02:19:37;;;;;;;;;;;;;;;7.47;100.00;103269.41;5036578;28;19933;-64
2023/02/04 02:22:05;;;;;;;;;;;;;;;7.45;100.00;103271.22;5040844;28;19986;-64
2023/02/04 02:24:32;;;;;;;;;;;;;;;7.45;100.00;103274.69;5028598;28;19931;-63
2023/02/04 02:27:01;;;;;;;;;;;;;;;7.43;100.00;103276.50;5036577;28;20595;-63
2023/02/04 02:29:28;;;;;;;;;;;;;;;7.39;100.00;103276.69;5033392;28;19929;-63
2023/02/04 02:31:58;;;;;;;;;;;;;;;7.34;100.00;103271.66;5042445;28;19978;-64
2023/02/04 02:34:26;;;;;;;;;;;;;;;7.26;100.00;103282.44;5024039;28;20537;-63
2023/02/04 02:36:52;;;;;;;;;;;;;;;7.26;100.00;103292.88;5044489;28;19935;-64
2023/02/04 02:39:19;;;;;;;;;;;;;;;7.24;100.00;103283.41;5038578;28;20376;-64
2023/02/04 02:41:46;;;;;;;;;;;;;;;7.17;100.00;103281.97;5024942;28;19929;-64
2023/02/04 02:44:12;;;;;;;;;;;;;;;7.12;100.00;103279.56;5035494;28;20566;-64
2023/02/04 02:46:39;;;;;;;;;;;;;;;7.13;100.00;103284.72;5038785;28;19933;-63
2023/02/04 02:49:05;;;;;;;;;;;;;;;7.12;100.00;103282.16;5044890;28;19939;-64
2023/02/04 02:51:32;;;;;;;;;;;;;;;7.09;100.00;103285.75;5029520;28;19929;-64
2023/02/04 02:53:58;;;;;;;;;;;;;;;7.04;100.00;103282.50;5028194;28;19929;-64
2023/02/04 02:56:24;;;;;;;;;;;;;;;7.01;100.00;103282.59;5043649;28;19932;-63
2023/02/04 02:58:52;;;;;;;;;;;;;;;6.98;100.00;103287.97;5038204;28;19929;-64
2023/02/04 03:01:18;;;;;;;;;;;;;;;6.97;100.00;103288.84;5045040;28;20616;-64
2023/02/04 03:03:46;;;;;;;;;;;;;;;6.95;100.00;103287.22;5027529;28;20433;-64
2023/02/04 03:06:15;;;;;;;;;;;;;;;6.93;100.00;103295.13;5039392;28;20053;-64
2023/02/04 03:08:42;;;;;;;;;;;;;;;6.90;100.00;103293.50;5016526;28;19929;-64
2023/02/04 03:11:09;;;;;;;;;;;;;;;6.88;100.00;103303.13;5038698;28;20558;-65
2023/02/04 03:13:36;;;;;;;;;;;;;;;6.82;100.00;103302.50;5040598;28;19939;-64
2023/02/04 03:16:03;;;;;;;;;;;;;;;6.77;100.00;103304.47;5034212;28;19928;-63
2023/02/04 03:18:30;;;;;;;;;;;;;;;6.73;100.00;103308.97;5042209;28;19929;-63
2023/02/04 03:20:57;;;;;;;;;;;;;;;6.70;100.00;103307.34;5014007;28;19929;-64
2023/02/04 03:23:26;;;;;;;;;;;;;;;6.66;100.00;103310.94;5036469;28;19936;-64
2023/02/04 03:25:52;;;;;;;;;;;;;;;6.61;100.00;103315.50;5037707;28;20286;-64
2023/02/04 03:28:19;;;;;;;;;;;;;;;6.58;100.00;103313.00;5044355;28;19948;-64
2023/02/04 03:30:52;;;;;;;;;;;;;;;6.55;100.00;103318.34;5038477;28;19978;-63
2023/02/04 03:33:19;;;;;;;;;;;;;;;6.54;100.00;103332.28;5017606;28;20374;-63
2023/02/04 03:35:45;;;;;;;;;;;;;;;6.52;100.00;103328.88;5047115;28;20289;-64
2023/02/04 03:38:12;;;;;;;;;;;;;;;6.49;100.00;103332.47;5030463;28;20127;-63
2023/02/04 03:40:38;;;;;;;;;;;;;;;6.46;100.00;103332.56;5038988;28;19940;-64
2023/02/04 03:43:04;;;;;;;;;;;;;;;6.39;100.00;103328.53;5038682;28;20477;-65
2023/02/04 03:45:31;;;;;;;;;;;;;;;6.40;100.00;103325.00;5035092;28;20373;-64
2023/02/04 03:48:10;;;;;;;;;;;;;;;6.38;100.00;103333.78;5033346;28;19936;-63
2023/02/04 03:50:36;;;;;;;;;;;;;;;6.33;100.00;103318.28;5029478;28;19939;-63
2023/02/04 03:53:02;;;;;;;;;;;;;;;6.31;100.00;103317.50;5036479;28;19925;-63
2023/02/04 03:55:31;;;;;;;;;;;;;;;6.34;100.00;103314.78;5033590;28;19925;-64
2023/02/04 03:57:57;;;;;;;;;;;;;;;6.33;100.00;103315.69;5037543;28;19929;-64
2023/02/04 04:00:23;;;;;;;;;;;;;;;6.28;100.00;103317.63;5031555;28;19932;-64
2023/02/04 04:02:50;;;;;;;;;;;;;;;6.24;100.00;103324.72;5036776;28;20412;-64
2023/02/04 04:05:16;;;;;;;;;;;;;;;6.19;100.00;103324.03;5038422;28;19955;-64
2023/02/04 04:07:43;;;;;;;;;;;;;;;6.14;100.00;103320.75;5033436;28;20010;-63
2023/02/04 04:10:10;;;;;;;;;;;;;;;6.10;100.00;103325.22;5043745;28;19935;-64
2023/02/04 04:12:36;;;;;;;;;;;;;;;6.04;100.00;103329.81;5033706;28;19933;-64
2023/02/04 04:15:03;;;;;;;;;;;;;;;6.01;100.00;103329.91;5038868;28;19933;-64
2023/02/04 04:17:29;;;;;;;;;;;;;;;5.96;100.00;103329.22;5036743;28;20332;-63
2023/02/04 04:19:56;;;;;;;;;;;;;;;5.92;100.00;103338.88;4990217;28;19933;-65
2023/02/04 04:22:22;;;;;;;;;;;;;;;5.88;100.00;103326.84;5037792;28;19929;-64
2023/02/04 04:24:48;;;;;;;;;;;;;;;5.84;100.00;103340.88;5024343;28;20205;-64
2023/02/04 04:27:15;;;;;;;;;;;;;;;5.81;100.00;103334.03;5033587;28;19933;-63
2023/02/04 04:29:41;;;;;;;;;;;;;;;5.78;100.00;103341.09;5032099;28;19982;-64
2023/02/04 04:32:08;;;;;;;;;;;;;;;5.78;100.00;103344.56;5040579;28;19928;-65
2023/02/04 04:34:35;;;;;;;;;;;;;;;5.72;100.00;103353.47;5036578;28;20342;-64
2023/02/04 04:37:01;;;;;;;;;;;;;;;5.73;100.00;103349.94;5034325;28;19982;-64
2023/02/04 04:39:27;;;;;;;;;;;;;;;5.73;100.00;103346.50;5036673;28;19951;-63
2023/02/04 04:41:54;;;;;;;;;;;;;;;5.74;100.00;103355.97;5030369;28;20403;-64
2023/02/04 04:44:21;;;;;;;;;;;;;;;5.74;100.00;103350.78;5043485;28;19932;-66
2023/02/04 04:46:47;;;;;;;;;;;;;;;5.72;100.00;103355.19;5038087;28;20408;-63
2023/02/04 04:49:15;;;;;;;;;;;;;;;5.69;100.00;103357.91;5042612;28;19929;-63
2023/02/04 04:51:41;;;;;;;;;;;;;;;5.63;100.00;103355.53;4999956;28;20107;-64
2023/02/04 04:54:07;;;;;;;;;;;;;;;5.59;100.00;103362.59;5029818;28;19935;-64
2023/02/04 04:56:34;;;;;;;;;;;;;;;5.59;100.00;103364.34;5039561;28;19928;-64
2023/02/04 04:59:00;;;;;;;;;;;;;;;5.54;100.00;103360.13;5035801;28;20059;-64
2023/02/04 05:01:26;;;;;;;;;;;;;;;5.50;100.00;103362.88;5042413;28;19979;-64
2023/02/04 05:03:53;;;;;;;;;;;;;;;5.45;100.00;103368.25;5032510;28;20578;-64
2023/02/04 05:06:24;;;;;;;;;;;;;;;5.45;100.00;103367.38;5014388;28;19933;-64
2023/02/04 05:08:51;;;;;;;;;;;;;;;5.46;100.00;103372.53;5036458;28;20365;-64
2023/02/04 05:11:17;;;;;;;;;;;;;;;5.47;100.00;103369.06;5038287;28;19944;-64
2023/02/04 05:13:43;;;;;;;;;;;;;;;5.50;100.00;103381.09;5014511;28;20507;-63
2023/02/04 05:16:11;;;;;;;;;;;;;;;5.54;100.00;103377.50;5033989;28;19936;-64
2023/02/04 05:18:40;;;;;;;;;;;;;;;5.54;100.00;103380.09;5038079;28;20567;-64
2023/02/04 05:21:07;;;;;;;;;;;;;;;5.53;100.00;103383.63;5030090;28;19963;-64
2023/02/04 05:23:33;;;;;;;;;;;;;;;5.55;100.00;103379.22;5042360;28;19935;-64
2023/02/04 05:25:59;;;;;;;;;;;;;;;5.53;100.00;103384.47;5038269;28;19933;-63
2023/02/04 05:28:26;;;;;;;;;;;;;;;5.57;100.00;103381.75;5030881;28;19935;-64
2023/02/04 05:30:52;;;;;;;;;;;;;;;5.60;100.00;103387.69;5041904;28;19944;-63
2023/02/04 05:33:18;;;;;;;;;;;;;;;5.64;100.00;103385.84;5029164;28;20368;-63
2023/02/04 05:35:45;;;;;;;;;;;;;;;5.66;100.00;103387.50;5037915;28;19928;-64
2023/02/04 05:38:13;;;;;;;;;;;;;;;5.69;100.00;103382.19;5033003;28;19936;-64
2023/02/04 05:40:40;;;;;;;;;;;;;;;5.73;100.00;103375.13;5042187;28;19925;-63
2023/02/04 05:43:06;;;;;;;;;;;;;;;5.75;100.00;103386.34;5041945;28;19947;-64
2023/02/04 05:45:32;;;;;;;;;;;;;;;5.78;100.00;103388.84;5035921;28;19952;-64
2023/02/04 05:47:59;;;;;;;;;;;;;;;5.77;100.00;103397.56;5027335;28;20023;-65
2023/02/04 05:50:25;;;;;;;;;;;;;;;5.78;100.00;103401.84;5027513;28;20316;-64
2023/02/04 05:52:51;;;;;;;;;;;;;;;5.81;100.00;103393.09;5041667;28;20011;-64
2023/02/04 05:55:18;;;;;;;;;;;;;;;5.83;100.00;103399.97;5033505;28;20328;-64
2023/02/04 05:57:44;;;;;;;;;;;;;;;5.88;100.00;103402.41;5035384;28;20432;-64
2023/02/04 06:00:11;;;;;;;;;;;;;;;5.90;100.00;103404.06;5035303;28;21086;-64
2023/02/04 06:02:38;;;;;;;;;;;;;;;5.91;100.00;103403.16;5029683;28;19951;-64
2023/02/04 06:05:04;;;;;;;;;;;;;;;5.93;100.00;103406.56;5034401;28;19929;-64
2023/02/04 06:07:31;;;;;;;;;;;;;;;5.93;100.00;103401.34;5030134;28;20293;-63
2023/02/04 06:09:57;;;;;;;;;;;;;;;5.98;100.00;103403.84;5041506;28;19925;-63
2023/02/04 06:12:25;;;;;;;;;;;;;;;5.98;100.00;103392.53;5035557;28;20267;-64
2023/02/04 06:14:51;;;;;;;;;;;;;;;5.99;100.00;103397.72;5032612;28;19933;-64
2023/02/04 06:17:18;;;;;;;;;;;;;;;6.03;100.00;103409.72;5033053;28;19929;-64
2023/02/04 06:19:44;;;;;;;;;;;;;;;6.06;100.00;103403.56;5033466;28;20016;-63
2023/02/04 06:22:10;;;;;;;;;;;;;;;6.07;100.00;103408.72;5033978;28;19925;-64
2023/02/04 06:24:37;;;;;;;;;;;;;;;6.11;100.00;103412.06;5032416;28;19978;-63
2023/02/04 06:27:03;;;;;;;;;;;;;;;6.11;100.00;103409.47;5040877;28;19939;-64
2023/02/04 06:29:29;;;;;;;;;;;;;;;6.14;100.00;103415.41;5031438;28;19929;-64
2023/02/04 06:31:56;;;;;;;;;;;;;;;6.16;100.00;103417.97;5030551;28;19953;-64
2023/02/04 06:34:22;;;;;;;;;;;;;;;6.19;100.00;103417.84;5040701;28;19975;-64
2023/02/04 06:36:48;;;;;;;;;;;;;;;6.22;100.00;103429.94;5031108;28;19924;-64
2023/02/04 06:39:15;;;;;;;;;;;;;;;6.20;100.00;103430.00;5037327;28;20328;-63
2023/02/04 06:41:41;;;;;;;;;;;;;;;6.22;100.00;103432.56;5032557;28;19968;-63
2023/02/04 06:44:07;;;;;;;;;;;;;;;6.18;100.00;103436.19;5034473;28;19928;-64
2023/02/04 06:46:34;;;;;;;;;;;;;;;6.17;100.00;103434.47;5037352;28;19935;-64
2023/02/04 06:49:00;;;;;;;;;;;;;;;6.20;100.00;103450.84;5013284;28;19959;-65
2023/02/04 06:51:26;;;;;;;;;;;;;;;6.19;100.00;103446.53;5033375;28;19933;-65
2023/02/04 06:53:52;;;;;;;;;;;;;;;6.21;100.00;103449.06;5034999;28;19929;-66
2023/02/04 06:56:19;;;;;;;;;;;;;;;6.13;100.00;103454.56;5037113;28;19936;-65
2023/02/04 06:58:45;;;;;;;;;;;;;;;6.18;100.00;103455.25;5027788;28;20119;-65
2023/02/04 07:01:12;;;;;;;;;;;;;;;6.17;100.00;103461.38;5018138;28;19963;-64
2023/02/04 07:03:38;;;;;;;;;;;;;;;6.19;100.00;103464.75;5037645;28;19936;-66
2023/02/04 07:06:05;;;;;;;;;;;;;;;6.23;100.00;103468.97;5036241;28;19928;-65
2023/02/04 07:08:32;;;;;;;;;;;;;;;6.26;100.00;103481.06;5037381;28;19928;-64
2023/02/04 07:10:58;;;;;;;;;;;;;;;6.29;100.00;103483.53;5026561;28;19979;-66
2023/02/04 07:13:25;;;;;;;;;;;;;;;6.25;100.00;103474.13;5026437;28;20027;-64
2023/02/04 07:15:51;;;;;;;;;;;;;;;6.29;100.00;103479.22;5036420;28;20325;-66
2023/02/04 07:18:18;;;;;;;;;;;;;;;6.32;100.00;103479.09;5043978;28;19960;-65
2023/02/04 07:20:45;;;;;;;;;;;;;;;6.34;100.00;103476.44;5041658;28;20048;-65
2023/02/04 07:23:12;;;;;;;;;;;;;;;6.34;100.00;103486.84;5037658;28;19929;-64
2023/02/04 07:25:38;;;;;;;;;;;;;;;6.38;100.00;103490.22;5038883;28;20478;-65
2023/02/04 07:28:05;;;;;;;;;;;;;;;6.39;100.00;103490.16;5032466;28;19929;-66
2023/02/04 07:30:31;;;;;;;;;;;;;;;6.39;100.00;103497.13;5042624;28;19936;-65
2023/02/04 07:32:58;;;;;;;;;;;;;;;6.41;100.00;103496.19;5033348;28;20312;-64
2023/02/04 07:35:25;;;;;;;;;;;;;;;6.27;100.00;103499.25;5021131;28;20297;-64
2023/02/04 07:37:52;;;;;;;;;;;;;;;6.32;100.00;103496.50;5042578;28;20062;-65
2023/02/04 07:40:18;;;;;;;;;;;;;;;6.36;100.00;103502.44;5030936;28;19928;-66
2023/02/04 07:42:46;;;;;;;;;;;;;;;6.38;100.00;103506.69;5042022;28;19935;-65
2023/02/04 07:45:15;;;;;;;;;;;;;;;6.38;100.00;103506.69;5018945;28;19978;-65
2023/02/04 07:47:42;;;;;;;;;;;;;;;6.42;100.00;103513.50;5043554;28;20439;-64
2023/02/04 07:50:08;;;;;;;;;;;;;;;6.48;100.00;103530.69;5036726;28;19935;-66
2023/02/04 07:52:35;;;;;;;;;;;;;;;6.47;100.00;103521.19;5021454;28;20571;-66
2023/02/04 07:55:01;;;;;;;;;;;;;;;6.46;100.00;103525.53;5036567;28;20477;-65
2023/02/04 07:57:28;;;;;;;;;;;;;;;6.48;100.00;103525.47;5034141;28;20654;-64
2023/02/04 07:59:55;;;;;;;;;;;;;;;6.51;100.00;103536.66;5041643;28;19929;-65
2023/02/04 08:02:22;;;;;;;;;;;;;;;6.53;100.00;103542.69;5031527;28;19929;-64
2023/02/04 08:04:48;;;;;;;;;;;;;;;6.58;100.00;103544.28;5025530;28;19967;-65
2023/02/04 08:07:15;;;;;;;;;;;;;;;6.64;100.00;103546.66;5015392;28;20057;-67
2023/02/04 08:09:46;;;;;;;;;;;;;;;6.67;100.00;103555.22;5017729;28;21262;-65
2023/02/04 08:12:12;;;;;;;;;;;;;;;6.70;100.00;103560.34;5038226;28;20018;-66
2023/02/04 08:14:38;;;;;;;;;;;;;;;6.77;100.00;103560.13;5036881;28;19932;-65
2023/02/04 08:17:04;;;;;;;;;;;;;;;6.80;100.00;103554.78;5033257;28;19935;-65
2023/02/04 08:19:31;;;;;;;;;;;;;;;6.83;100.00;103565.97;5033013;28;19990;-65
2023/02/04 08:21:57;;;;;;;;;;;;;;;6.89;100.00;103567.53;5042099;28;19933;-65
2023/02/04 08:24:24;;;;;;;;;;;;;;;6.90;100.00;103569.22;5035823;28;19935;-65
2023/02/04 08:26:53;;;;;;;;;;;;;;;6.91;100.00;103568.31;5042853;28;20289;-63
2023/02/04 08:29:21;;;;;;;;;;;;;;;6.96;100.00;103568.13;5015989;28;19929;-66
2023/02/04 08:31:48;;;;;;;;;;;;;;;6.95;100.00;103572.50;5032333;28;19942;-66
2023/02/04 08:34:15;;;;;;;;;;;;;;;6.99;100.00;103579.31;5037543;28;20305;-65
2023/02/04 08:36:43;;;;;;;;;;;;;;;7.07;100.00;103573.81;5034960;28;19929;-65
2023/02/04 08:39:11;;;;;;;;;;;;;;;7.11;100.00;103571.06;5039036;28;19929;-66
2023/02/04 08:41:37;;;;;;;;;;;;;;;7.09;100.00;103580.69;5023255;28;19929;-64
2023/02/04 08:44:06;;;;;;;;;;;;;;;7.14;100.00;103585.75;5039157;28;20039;-65
2023/02/04 08:46:33;;;;;;;;;;;;;;;7.18;100.00;103576.06;5031547;28;19928;-65
2023/02/04 08:49:00;;;;;;;;;;;;;;;7.26;100.00;103585.28;5018260;28;20381;-64
2023/02/04 08:51:27;;;;;;;;;;;;;;;7.27;100.00;103576.56;5042154;28;20156;-66
2023/02/04 08:53:54;;;;;;;;;;;;;;;7.35;100.00;103583.25;5030787;28;20373;-65
2023/02/04 08:56:20;;;;;;;;;;;;;;;7.40;100.00;103589.16;5033542;28;19932;-65
2023/02/04 08:58:47;;;;;;;;;;;;;;;7.44;100.00;103585.50;5030592;28;20452;-66
2023/02/04 09:01:13;;;;;;;;;;;;;;;7.47;100.00;103586.25;5035835;28;20358;-66
2023/02/04 09:03:40;;;;;;;;;;;;;;;7.50;100.00;103583.50;5040395;28;20168;-65
2023/02/04 09:06:07;;;;;;;;;;;;;;;7.49;100.00;103579.22;5036232;28;20016;-65
2023/02/04 09:08:33;;;;;;;;;;;;;;;7.57;100.00;103583.31;5042196;28;20443;-64
2023/02/04 09:11:00;;;;;;;;;;;;;;;7.56;100.00;103578.97;5032493;28;20502;-65
2023/02/04 09:13:26;;;;;;;;;;;;;;;7.64;100.00;103580.38;5028897;28;20397;-64
2023/02/04 09:15:53;;;;;;;;;;;;;;;7.77;100.00;103585.13;5028474;28;19973;-65
2023/02/04 09:18:21;;;;;;;;;;;;;;;7.80;100.00;103588.47;5042286;28;19938;-64
2023/02/04 09:20:48;;;;;;;;;;;;;;;7.87;100.00;103591.69;5038391;28;19933;-65
2023/02/04 09:23:14;;;;;;;;;;;;;;;7.93;100.00;103592.28;5033233;28;20383;-66
2023/02/04 09:25:42;;;;;;;;;;;;;;;7.98;100.00;103599.97;5032188;28;20259;-65
2023/02/04 09:28:10;;;;;;;;;;;;;;;8.03;100.00;103605.84;4990115;28;20382;-64
2023/02/04 09:30:37;;;;;;;;;;;;;;;8.12;100.00;103599.41;5038821;28;20344;-64
2023/02/04 09:33:04;;;;;;;;;;;;;;;8.16;100.00;103598.38;5032579;28;20070;-65
2023/02/04 09:35:30;;;;;;;;;;;;;;;8.23;100.00;103597.22;5039659;28;19939;-63
2023/02/04 09:37:57;;;;;;;;;;;;;;;8.26;100.00;103599.69;5036166;28;19933;-64
2023/02/04 09:40:25;;;;;;;;;;;;;;;8.31;100.00;103599.47;5025702;28;19925;-63
2023/02/04 09:42:53;;;;;;;;;;;;;;;8.36;100.00;103591.47;5036618;28;19982;-64
2023/02/04 09:45:21;;;;;;;;;;;;;;;8.36;100.00;103600.16;5032635;28;19955;-63
2023/02/04 09:47:48;;;;;;;;;;;;;;;8.39;100.00;103599.16;5040473;28;20779;-64
2023/02/04 09:50:15;;;;;;;;;;;;;;;8.38;100.00;103608.78;5020547;28;20340;-63
2023/02/04 09:52:42;;;;;;;;;;;;;;;8.38;100.00;103600.09;5035625;28;20222;-64
2023/02/04 09:55:12;;;;;;;;;;;;;;;8.35;100.00;103597.59;5029994;28;20174;-65
2023/02/04 09:57:40;;;;;;;;;;;;;;;8.38;100.00;103603.56;5034727;28;20401;-64
2023/02/04 10:00:14;;;;;;;;;;;;;;;8.42;100.00;103614.78;5038062;28;20286;-63
2023/02/04 10:02:40;;;;;;;;;;;;;;;8.49;100.00;103613.63;5031951;28;20290;-65
2023/02/04 10:05:14;;;;;;;;;;;;;;;8.56;100.00;103614.19;5037703;28;19933;-64
2023/02/04 10:07:40;;;;;;;;;;;;;;;8.59;100.00;103619.31;5033217;28;21041;-64
2023/02/04 10:10:14;;;;;;;;;;;;;;;8.61;100.00;103622.72;5033215;28;20102;-66
2023/02/04 10:12:40;;;;;;;;;;;;;;;8.65;100.00;103621.66;5041717;28;19936;-65
2023/02/04 10:15:09;;;;;;;;;;;;;;;8.74;100.00;103626.47;5032524;28;19932;-65
2023/02/04 10:17:36;;;;;;;;;;;;;;;8.84;100.00;103621.72;5033400;28;19943;-65
2023/02/04 10:20:02;;;;;;;;;;;;;;;8.91;100.00;103621.38;5034181;28;19928;-66
2023/02/04 10:22:29;;;;;;;;;;;;;;;9.02;100.00;103625.31;5030896;28;19933;-65
2023/02/04 10:24:55;;;;;;;;;;;;;;;9.07;100.00;103632.03;5030417;28;19929;-64
2023/02/04 10:27:22;;;;;;;;;;;;;;;9.14;100.00;103624.75;5039458;28;19935;-66
2023/02/04 10:29:57;;;;;;;;;;;;;;;9.21;100.00;103631.44;5036982;28;19991;-65
2023/02/04 10:32:33;;;;;;;;;;;;;;;9.14;100.00;103627.38;5031409;28;20409;-67
2023/02/04 10:35:00;;;;;;;;;;;;;;;9.14;100.00;103619.53;5032911;28;19971;-66
2023/02/04 10:37:26;;;;;;;;;;;;;;;9.22;100.00;103622.66;5028025;28;20423;-66
2023/02/04 10:39:53;;;;;;;;;;;;;;;9.28;100.00;103619.75;5025092;28;19928;-65
2023/02/04 10:42:29;;;;;;;;;;;;;;;9.34;100.00;103625.63;5036183;28;19986;-65
2023/02/04 10:44:56;;;;;;;;;;;;;;;9.42;100.00;103624.34;5033767;28;20340;-66
2023/02/04 10:47:24;;;;;;;;;;;;;;;9.39;100.00;103637.59;5033033;28;19932;-66
2023/02/04 10:49:52;;;;;;;;;;;;;;;9.36;100.00;103637.72;5028170;28;19929;-65
2023/02/04 10:52:19;;;;;;;;;;;;;;;9.43;100.00;103639.16;5038821;28;19933;-65
2023/02/04 10:54:46;;;;;;;;;;;;;;;9.50;100.00;103643.19;5034122;28;19929;-65
2023/02/04 10:57:20;;;;;;;;;;;;;;;9.57;100.00;103635.06;5043959;28;19933;-65
2023/02/04 10:59:49;;;;;;;;;;;;;;;9.60;100.00;103634.91;5037183;28;19925;-65
2023/02/04 11:02:30;;;;;;;;;;;;;;;9.64;100.00;103636.47;5037398;28;19939;-66
2023/02/04 11:04:57;;;;;;;;;;;;;;;9.76;100.00;103640.28;5035260;28;20396;-65
2023/02/04 11:07:23;;;;;;;;;;;;;;;9.80;100.00;103624.34;5038139;28;19925;-65
2023/02/04 11:09:50;;;;;;;;;;;;;;;9.83;100.00;103632.06;5042433;28;19932;-66
2023/02/04 11:12:34;;;;;;;;;;;;;;;9.82;100.00;103627.75;5037184;28;20023;-65
2023/02/04 11:15:00;;;;;;;;;;;;;;;9.87;100.00;103632.78;5043488;28;19929;-65
2023/02/04 11:17:30;;;;;;;;;;;;;;;9.90;100.00;103630.03;5034586;28;19928;-66
2023/02/04 11:19:58;;;;;;;;;;;;;;;9.97;100.00;103626.16;5040802;28;19978;-68
2023/02/04 11:22:41;;;;;;;;;;;;;;;10.02;100.00;103628.56;5035976;28;20630;-65
2023/02/04 11:25:26;;;;;;;;;;;;;;;10.06;100.00;103636.22;5044172;28;20636;-65
2023/02/04 11:27:53;;;;;;;;;;;;;;;10.10;100.00;103624.66;5018946;28;20736;-65
2023/02/04 11:30:20;;;;;;;;;;;;;;;10.03;100.00;103630.25;5033801;28;20321;-65
2023/02/04 11:33:00;;;;;;;;;;;;;;;10.09;100.00;103637.81;5040054;28;19932;-65
2023/02/04 11:35:27;;;;;;;;;;;;;;;10.11;100.00;103630.72;5037012;28;20012;-65
2023/02/04 11:37:54;;;;;;;;;;;;;;;10.16;100.00;103628.75;5042508;28;20494;-67
2023/02/04 11:40:21;;;;;;;;;;;;;;;10.20;100.00;103630.28;5033691;28;19932;-66
2023/02/04 11:42:48;;;;;;;;;;;;;;;10.23;100.00;103630.16;5041364;28;20370;-66
2023/02/04 11:45:15;;;;;;;;;;;;;;;10.27;100.00;103633.44;5032197;28;20217;-66
2023/02/04 11:47:41;;;;;;;;;;;;;;;10.37;100.00;103633.88;5043215;28;20355;-66
2023/02/04 11:50:24;;;;;;;;;;;;;;;10.45;100.00;103632.59;5041673;28;19925;-66
2023/02/04 11:52:53;;;;;;;;;;;;;;;10.56;100.00;103634.66;5032929;28;19928;-65
2023/02/04 11:55:19;;;;;;;;;;;;;;;10.65;100.00;103633.34;5042734;28;20030;-66
2023/02/04 11:57:50;;;;;;;;;;;;;;;10.77;100.00;103630.09;5028962;28;19932;-66
2023/02/04 12:00:18;;;;;;;;;;;;;;;10.77;100.00;103631.88;5041175;28;19955;-66
2023/02/04 12:02:49;;;;;;;;;;;;;;;10.75;100.00;103639.00;5030582;28;20338;-66
2023/02/04 12:05:17;;;;;;;;;;;;;;;10.79;100.00;103638.75;5042405;28;19928;-65
2023/02/04 12:07:44;;;;;;;;;;;;;;;10.77;100.00;103637.97;5042565;28;19932;-65
2023/02/04 12:10:17;;;;;;;;;;;;;;;10.65;100.00;103634.19;5036988;28;20195;-65
2023/02/04 12:12:47;;;;;;;;;;;;;;;10.78;100.00;103625.69;5039213;28;19982;-65
2023/02/04 12:15:24;;;;;;;;;;;;;;;10.89;100.00;103629.44;5030950;28;19929;-65
2023/02/04 12:18:06;;;;;;;;;;;;;;;10.92;100.00;103625.84;5042797;28;19936;-65
2023/02/04 12:20:33;;;;;;;;;;;;;;;11.05;100.00;103623.41;5036118;28;19929;-65
2023/02/04 12:22:59;;;;;;;;;;;;;;;11.05;97.96;103626.91;5032148;28;19979;-65
2023/02/04 12:25:26;;;;;;;;;;;;;;;11.07;100.00;103635.56;5023180;28;20170;-66
2023/02/04 12:27:54;;;;;;;;;;;;;;;11.00;99.74;103628.06;5041927;28;19929;-66
2023/02/04 12:30:24;;;;;;;;;;;;;;;10.82;97.71;103629.84;5043637;28;19933;-65
2023/02/04 12:32:51;;;;;;;;;;;;;;;10.87;100.00;103633.94;5024976;28;20665;-66
2023/02/04 12:35:18;;;;;;;;;;;;;;;10.89;98.67;103633.88;5041823;28;19936;-65
2023/02/04 12:37:44;;;;;;;;;;;;;;;11.07;100.00;103622.41;5030793;28;20043;-66